CYO weather

Pickaway County Memorial Airport
Circleville, Ohio, United States

Public forecast

Using degrees Fahrenheit for public forecast. Weather courtesy of forecast.io.

Closest aviation weather report (METAR) to Pickaway County Memorial Airport

Closest report is Ross County Airport, 4.9 nm (9.1 km) SSW. Retrieved 2020/02/17 20:36 UTC (20 minutes ago):

KRZT 172036Z AUTO 12004KT 10SM BKN110 09/M05 A3006 RMK AO2 PWINO

Closest aviation forecast (TAF) to Pickaway County Memorial Airport

Closest forecast is Rickenbacker International Airport, 18.1 nm (33.4 km) N. Retrieved 2020/02/17 18:33 UTC (2 hours ago):

TAF KLCK 171728Z 1718/1818 08010KT P6SM BKN200 FM172200 10008KT P6SM BKN120 FM180400 12010KT P6SM VCSH SCT050 OVC070 FM180600 16013KT P6SM -RA OVC040 WS020/20045KT FM180900 21012G20KT 5SM -RA OVC022 WS020/22040KT FM181400 23011KT P6SM VCSH OVC009 FM181700 29011KT P6SM OVC011